createdAt,value
2019-06-07T00:04:59.115Z,7.95
2019-06-07T00:10:03.669Z,7.28
2019-06-07T00:15:12.942Z,7.25
2019-06-07T00:20:23.471Z,7.45
2019-06-07T00:25:25.323Z,7.65
2019-06-07T00:30:48.463Z,8.33
2019-06-07T00:35:38.268Z,7.37
2019-06-07T00:40:44.665Z,7.92
2019-06-07T00:45:48.355Z,7.45
2019-06-07T00:50:57.091Z,8.10
2019-06-07T00:56:02.271Z,8.38
2019-06-07T01:01:12.471Z,7.87
2019-06-07T01:06:17.522Z,8.00
2019-06-07T01:11:35.309Z,7.90
2019-06-07T01:16:56.528Z,8.10
2019-06-07T01:21:44.464Z,8.03
2019-06-07T01:26:52.136Z,7.87
2019-06-07T01:32:05.519Z,8.18
2019-06-07T01:37:10.660Z,7.87
2019-06-07T01:42:14.376Z,8.53
2019-06-07T01:47:21.192Z,8.53
2019-06-07T01:52:27.460Z,9.30
2019-06-07T01:57:45.640Z,9.15
2019-06-07T02:02:39.632Z,9.15
2019-06-07T02:07:53.348Z,9.28
2019-06-07T02:12:57.070Z,9.50
2019-06-07T02:18:00.830Z,9.43
2019-06-07T02:23:06.232Z,10.08
2019-06-07T02:28:27.575Z,9.63
2019-06-07T02:33:24.191Z,8.93
2019-06-07T02:38:43.399Z,8.55
2019-06-07T02:43:55.693Z,8.60
2019-06-07T02:49:02.230Z,8.28
2019-06-07T02:54:13.622Z,8.65
2019-06-07T02:59:40.194Z,9.00
2019-06-07T03:04:28.568Z,9.58
2019-06-07T03:09:35.048Z,8.83
2019-06-07T03:14:55.606Z,9.25
2019-06-07T03:20:02.813Z,8.43
2019-06-07T03:25:07.696Z,8.35
2019-06-07T03:35:28.456Z,9.18
2019-06-07T03:40:31.691Z,9.50
2019-06-07T03:45:41.170Z,8.80
2019-06-07T03:51:04.460Z,9.63
2019-06-07T03:56:05.154Z,8.95
2019-06-07T04:01:13.971Z,8.70
2019-06-07T04:06:32.483Z,8.75
2019-06-07T04:11:35.773Z,9.03
2019-06-07T04:16:44.198Z,10.32
2019-06-07T04:21:45.422Z,11.00
2019-06-07T04:26:58.164Z,9.98
2019-06-07T04:32:04.426Z,10.58
2019-06-07T04:37:12.645Z,10.68
2019-06-07T04:42:19.725Z,11.35
2019-06-07T04:47:26.884Z,10.80
2019-06-07T04:52:33.475Z,10.20
2019-06-07T04:57:37.617Z,10.60
2019-06-07T05:02:45.017Z,10.82
2019-06-07T05:07:48.630Z,11.60
2019-06-07T05:13:02.531Z,10.03
2019-06-07T05:18:09.309Z,10.95
2019-06-07T05:24:00.189Z,10.63
2019-06-07T05:28:35.756Z,10.88
2019-06-07T05:33:45.362Z,10.55
2019-06-07T05:38:50.418Z,10.35
2019-06-07T05:49:46.963Z,11.05
2019-06-07T05:55:01.943Z,11.30
2019-06-07T06:00:08.235Z,9.93
2019-06-07T06:05:33.406Z,9.80
2019-06-07T06:10:26.348Z,10.60
2019-06-07T06:15:42.309Z,10.10
2019-06-07T06:21:05.360Z,10.58
2019-06-07T06:25:58.484Z,9.30
2019-06-07T06:36:49.742Z,9.50
2019-06-07T06:42:03.364Z,8.68
2019-06-07T06:47:00.894Z,9.63
2019-06-07T06:52:08.133Z,8.35
2019-06-07T06:57:20.364Z,8.95
2019-06-07T07:02:31.253Z,8.58
2019-06-07T07:07:36.074Z,7.97
2019-06-07T07:13:07.443Z,7.37
2019-06-07T07:18:12.143Z,7.80
2019-06-07T07:23:17.410Z,8.13
2019-06-07T07:28:24.663Z,6.90
2019-06-07T07:39:00.441Z,8.40
2019-06-07T07:44:06.045Z,7.95
2019-06-07T07:49:05.122Z,7.85
2019-06-07T07:54:11.084Z,7.47
2019-06-07T07:59:16.742Z,7.58
2019-06-07T08:04:39.498Z,7.47
2019-06-07T08:09:25.552Z,7.65
2019-06-07T08:14:29.098Z,7.60
2019-06-07T08:19:39.498Z,7.30
2019-06-07T08:24:50.471Z,6.55
2019-06-07T08:30:15.638Z,7.83
2019-06-07T08:35:06.021Z,6.97
2019-06-07T08:40:13.702Z,7.20
2019-06-07T08:45:24.781Z,6.97
2019-06-07T08:51:06.579Z,6.92
2019-06-07T09:17:26.281Z,6.25
2019-06-07T09:22:32.848Z,6.15
2019-06-07T09:27:51.093Z,5.70
2019-06-07T09:33:06.623Z,5.67
2019-06-07T09:38:23.405Z,5.35
2019-06-07T09:44:00.834Z,7.20
2019-06-07T09:49:10.609Z,6.33
2019-06-07T09:53:56.152Z,5.95
2019-06-07T09:59:12.656Z,6.75
2019-06-07T10:04:30.300Z,6.37
2019-06-07T10:14:37.266Z,6.87
2019-06-07T10:19:44.608Z,6.25
2019-06-07T10:24:48.278Z,6.40
2019-06-07T10:29:51.802Z,6.35
2019-06-07T10:34:55.336Z,7.50
2019-06-07T10:39:58.910Z,7.37
2019-06-07T10:45:04.473Z,6.65
2019-06-07T10:50:10.267Z,6.83
2019-06-07T10:55:17.603Z,6.67
2019-06-07T11:12:06.393Z,6.08
2019-06-07T11:17:13.419Z,4.90
2019-06-07T11:22:23.436Z,5.55
2019-06-07T11:27:44.531Z,4.65
2019-06-07T11:32:48.299Z,5.17
2019-06-07T11:37:58.127Z,6.85
2019-06-07T11:43:08.600Z,5.10
2019-06-07T11:48:20.416Z,5.40
2019-06-07T11:53:24.214Z,5.10
2019-06-07T11:58:29.586Z,4.62
2019-06-07T12:03:33.345Z,3.85
2019-06-07T12:08:40.135Z,3.50
2019-06-07T12:13:43.811Z,5.08
2019-06-07T12:18:53.370Z,3.65
2019-06-07T12:23:57.162Z,3.55
2019-06-07T12:29:00.853Z,3.40
2019-06-07T12:34:11.182Z,2.77
2019-06-07T12:39:16.044Z,2.95
2019-06-07T12:44:20.762Z,2.85
2019-06-07T12:49:24.409Z,2.77
2019-06-07T12:54:28.129Z,3.47
2019-06-07T12:59:31.717Z,2.35
2019-06-07T13:04:35.257Z,2.70
2019-06-07T13:09:42.399Z,2.87
2019-06-07T13:14:46.083Z,2.60
2019-06-07T13:19:50.656Z,2.50
2019-06-07T13:24:54.327Z,3.10
2019-06-07T13:29:57.880Z,2.77
2019-06-07T13:35:01.508Z,2.33
2019-06-07T13:40:06.855Z,2.33
2019-06-07T13:45:11.141Z,2.20
2019-06-07T13:50:15.083Z,1.98
2019-06-07T13:55:25.794Z,2.00
2019-06-07T14:05:43.943Z,2.37
2019-06-07T14:10:47.540Z,1.72
2019-06-07T14:21:22.554Z,1.70
2019-06-07T14:26:23.519Z,2.05
2019-06-07T14:31:30.299Z,1.70
2019-06-07T14:36:42.394Z,1.82
2019-06-07T15:35:45.905Z,1.55
2019-06-07T16:14:39.094Z,1.47
2019-06-07T16:20:12.015Z,0.90
2019-06-07T16:25:52.905Z,1.45
2019-06-07T16:58:05.728Z,0.90
2019-06-07T17:03:34.780Z,0.98
2019-06-07T17:14:12.065Z,1.30
2019-06-07T17:30:11.081Z,0.80
2019-06-07T17:35:44.668Z,0.70
2019-06-07T17:40:36.919Z,0.80
2019-06-07T17:45:47.496Z,0.90
2019-06-07T17:50:57.704Z,0.90
2019-06-07T18:02:26.573Z,0.80
2019-06-07T18:08:06.239Z,1.00
2019-06-07T18:13:19.071Z,0.90
2019-06-07T18:18:24.172Z,1.00
2019-06-07T18:23:28.378Z,0.95
2019-06-07T18:28:34.951Z,0.80
2019-06-07T18:33:38.695Z,0.90
2019-06-07T18:38:59.550Z,0.80
2019-06-07T18:44:21.644Z,0.90
2019-06-07T18:49:29.418Z,0.78
2019-06-07T18:54:37.096Z,1.00
2019-06-07T18:59:48.309Z,1.67
2019-06-07T19:04:54.188Z,0.68
2019-06-07T19:10:10.618Z,1.45
2019-06-07T19:15:12.387Z,1.10
2019-06-07T19:20:18.721Z,1.30
2019-06-07T19:25:22.772Z,0.78
2019-06-07T19:30:26.643Z,0.70
2019-06-07T19:35:30.319Z,0.82
2019-06-07T19:40:33.935Z,0.70
2019-06-07T19:45:37.708Z,0.95
2019-06-07T19:50:44.102Z,0.80
2019-06-07T19:55:47.697Z,0.70
2019-06-07T20:00:53.470Z,0.90
2019-06-07T20:06:02.475Z,0.90
2019-06-07T20:11:06.184Z,0.85
2019-06-07T20:16:10.032Z,1.32
2019-06-07T20:27:13.462Z,0.90
2019-06-07T20:32:40.614Z,0.80
2019-06-07T20:37:45.244Z,1.12
2019-06-07T20:42:52.147Z,0.80
2019-06-07T20:47:55.811Z,0.70
2019-06-07T20:53:03.129Z,1.00
2019-06-07T20:58:07.365Z,0.80
2019-06-07T21:03:14.205Z,0.90
2019-06-07T21:08:20.179Z,0.80
2019-06-07T21:13:24.243Z,0.78
2019-06-07T21:18:31.811Z,0.63
2019-06-07T21:24:09.232Z,1.10
2019-06-07T21:29:16.209Z,0.95
2019-06-07T21:34:19.917Z,0.90
2019-06-07T21:39:25.619Z,1.37
2019-06-07T21:44:33.559Z,0.85
2019-06-07T21:49:39.089Z,0.70
2019-06-07T21:54:43.238Z,0.68
2019-06-07T21:59:49.904Z,0.82
2019-06-07T22:04:56.316Z,0.88
2019-06-07T22:10:00.220Z,0.70
2019-06-07T22:15:27.155Z,0.80
2019-06-07T22:20:14.919Z,0.72
2019-06-07T22:25:19.029Z,1.02
2019-06-07T22:30:24.464Z,1.10
2019-06-07T22:35:28.225Z,0.78
2019-06-07T22:40:32.305Z,1.05
2019-06-07T22:45:36.083Z,0.78
2019-06-07T22:50:39.764Z,0.60
2019-06-07T22:55:45.113Z,0.75
2019-06-07T23:00:48.886Z,0.70
2019-06-07T23:05:52.637Z,0.90
2019-06-07T23:10:57.418Z,0.72
2019-06-07T23:16:01.030Z,1.00
2019-06-07T23:21:04.859Z,0.85
2019-06-07T23:26:08.594Z,1.10
2019-06-07T23:31:12.493Z,1.05
2019-06-07T23:36:30.205Z,0.75
2019-06-07T23:47:10.749Z,1.10
2019-06-07T23:52:06.520Z,1.22
2019-06-07T23:57:12.121Z,1.20
